sensor_id;sensor_type;location;lat;lon;timestamp;temperature;humidity
14188;DHT22;7175;51.978;5.330;2023-07-16T00:00:29;18.40;99.90
14188;DHT22;7175;51.978;5.330;2023-07-16T00:03:01;18.40;99.90
14188;DHT22;7175;51.978;5.330;2023-07-16T00:05:29;18.30;99.90
14188;DHT22;7175;51.978;5.330;2023-07-16T00:07:57;18.30;99.90
14188;DHT22;7175;51.978;5.330;2023-07-16T00:10:25;18.20;99.90
14188;DHT22;7175;51.978;5.330;2023-07-16T00:12:53;18.30;99.90
14188;DHT22;7175;51.978;5.330;2023-07-16T00:15:21;18.30;99.90
14188;DHT22;7175;51.978;5.330;2023-07-16T00:17:50;18.20;99.90
14188;DHT22;7175;51.978;5.330;2023-07-16T00:20:19;18.20;99.90
14188;DHT22;7175;51.978;5.330;2023-07-16T00:22:47;18.10;99.90
14188;DHT22;7175;51.978;5.330;2023-07-16T00:25:16;18.10;99.90
14188;DHT22;7175;51.978;5.330;2023-07-16T00:27:44;18.00;99.90
14188;DHT22;7175;51.978;5.330;2023-07-16T00:30:12;18.00;99.90
14188;DHT22;7175;51.978;5.330;2023-07-16T00:32:40;18.00;99.90
14188;DHT22;7175;51.978;5.330;2023-07-16T00:35:09;17.90;99.90
14188;DHT22;7175;51.978;5.330;2023-07-16T00:37:38;17.90;99.90
14188;DHT22;7175;51.978;5.330;2023-07-16T00:40:07;18.00;99.90
14188;DHT22;7175;51.978;5.330;2023-07-16T00:42:35;18.00;99.90
14188;DHT22;7175;51.978;5.330;2023-07-16T00:45:09;18.00;99.90
14188;DHT22;7175;51.978;5.330;2023-07-16T00:47:41;18.00;99.90
14188;DHT22;7175;51.978;5.330;2023-07-16T00:50:11;18.00;99.90
14188;DHT22;7175;51.978;5.330;2023-07-16T00:52:44;18.00;99.90
14188;DHT22;7175;51.978;5.330;2023-07-16T00:55:12;17.90;99.90
14188;DHT22;7175;51.978;5.330;2023-07-16T00:57:41;18.00;99.90
14188;DHT22;7175;51.978;5.330;2023-07-16T01:00:10;18.00;99.90
14188;DHT22;7175;51.978;5.330;2023-07-16T01:02:50;17.90;99.90
14188;DHT22;7175;51.978;5.330;2023-07-16T01:05:18;17.90;99.90
14188;DHT22;7175;51.978;5.330;2023-07-16T01:07:55;17.90;99.90
14188;DHT22;7175;51.978;5.330;2023-07-16T01:10:24;17.90;99.90
14188;DHT22;7175;51.978;5.330;2023-07-16T01:12:55;17.90;99.90
14188;DHT22;7175;51.978;5.330;2023-07-16T01:15:24;17.90;99.90
14188;DHT22;7175;51.978;5.330;2023-07-16T01:17:52;17.90;99.90
14188;DHT22;7175;51.978;5.330;2023-07-16T01:20:20;17.80;99.90
14188;DHT22;7175;51.978;5.330;2023-07-16T01:23:11;17.80;99.90
14188;DHT22;7175;51.978;5.330;2023-07-16T01:25:57;17.70;99.90
14188;DHT22;7175;51.978;5.330;2023-07-16T01:29:06;17.70;99.90
14188;DHT22;7175;51.978;5.330;2023-07-16T01:31:35;17.70;99.90
14188;DHT22;7175;51.978;5.330;2023-07-16T01:34:05;17.70;99.90
14188;DHT22;7175;51.978;5.330;2023-07-16T01:36:34;17.60;99.90
14188;DHT22;7175;51.978;5.330;2023-07-16T01:39:04;17.70;99.90
14188;DHT22;7175;51.978;5.330;2023-07-16T01:41:33;17.60;99.90
14188;DHT22;7175;51.978;5.330;2023-07-16T01:44:03;17.60;99.90
14188;DHT22;7175;51.978;5.330;2023-07-16T01:46:33;17.60;99.90
14188;DHT22;7175;51.978;5.330;2023-07-16T01:49:01;17.60;99.90
14188;DHT22;7175;51.978;5.330;2023-07-16T01:51:30;17.60;99.90
14188;DHT22;7175;51.978;5.330;2023-07-16T01:53:59;17.60;99.90
14188;DHT22;7175;51.978;5.330;2023-07-16T01:56:30;17.60;99.90
14188;DHT22;7175;51.978;5.330;2023-07-16T01:58:58;17.60;99.90
14188;DHT22;7175;51.978;5.330;2023-07-16T02:01:27;17.60;99.90
14188;DHT22;7175;51.978;5.330;2023-07-16T02:03:56;17.60;99.90
14188;DHT22;7175;51.978;5.330;2023-07-16T02:06:25;17.60;99.90
14188;DHT22;7175;51.978;5.330;2023-07-16T02:08:53;17.50;99.90
14188;DHT22;7175;51.978;5.330;2023-07-16T02:11:21;17.60;99.90
14188;DHT22;7175;51.978;5.330;2023-07-16T02:13:50;17.50;99.90
14188;DHT22;7175;51.978;5.330;2023-07-16T02:16:18;17.50;99.90
14188;DHT22;7175;51.978;5.330;2023-07-16T02:18:46;17.50;99.90
14188;DHT22;7175;51.978;5.330;2023-07-16T02:21:16;17.50;99.90
14188;DHT22;7175;51.978;5.330;2023-07-16T02:23:44;17.50;99.90
14188;DHT22;7175;51.978;5.330;2023-07-16T02:26:12;17.40;99.90
14188;DHT22;7175;51.978;5.330;2023-07-16T02:28:41;17.50;99.90
14188;DHT22;7175;51.978;5.330;2023-07-16T02:31:09;17.50;99.90
14188;DHT22;7175;51.978;5.330;2023-07-16T02:33:37;17.50;99.90
14188;DHT22;7175;51.978;5.330;2023-07-16T02:36:06;17.50;99.90
14188;DHT22;7175;51.978;5.330;2023-07-16T02:38:35;17.50;99.90
14188;DHT22;7175;51.978;5.330;2023-07-16T02:41:04;17.50;99.90
14188;DHT22;7175;51.978;5.330;2023-07-16T02:43:32;17.50;99.90
14188;DHT22;7175;51.978;5.330;2023-07-16T02:46:00;17.50;99.90
14188;DHT22;7175;51.978;5.330;2023-07-16T02:48:28;17.50;99.90
14188;DHT22;7175;51.978;5.330;2023-07-16T02:50:56;17.50;99.90
14188;DHT22;7175;51.978;5.330;2023-07-16T02:53:24;17.50;99.90
14188;DHT22;7175;51.978;5.330;2023-07-16T02:55:54;17.50;99.90
14188;DHT22;7175;51.978;5.330;2023-07-16T02:58:22;17.50;99.90
14188;DHT22;7175;51.978;5.330;2023-07-16T03:00:50;17.50;99.90
14188;DHT22;7175;51.978;5.330;2023-07-16T03:03:19;17.40;99.90
14188;DHT22;7175;51.978;5.330;2023-07-16T03:05:47;17.40;99.90
14188;DHT22;7175;51.978;5.330;2023-07-16T03:08:18;17.40;99.90
14188;DHT22;7175;51.978;5.330;2023-07-16T03:10:46;17.40;99.90
14188;DHT22;7175;51.978;5.330;2023-07-16T03:13:16;17.30;99.90
14188;DHT22;7175;51.978;5.330;2023-07-16T03:15:45;17.40;99.90
14188;DHT22;7175;51.978;5.330;2023-07-16T03:18:13;17.30;99.90
14188;DHT22;7175;51.978;5.330;2023-07-16T03:20:41;17.30;99.90
14188;DHT22;7175;51.978;5.330;2023-07-16T03:23:10;17.30;99.90
14188;DHT22;7175;51.978;5.330;2023-07-16T03:25:39;17.20;99.90
14188;DHT22;7175;51.978;5.330;2023-07-16T03:28:07;17.20;99.90
14188;DHT22;7175;51.978;5.330;2023-07-16T03:30:39;17.10;99.90
14188;DHT22;7175;51.978;5.330;2023-07-16T03:33:07;17.10;99.90
14188;DHT22;7175;51.978;5.330;2023-07-16T03:35:38;17.10;99.90
14188;DHT22;7175;51.978;5.330;2023-07-16T03:38:07;17.00;99.90
14188;DHT22;7175;51.978;5.330;2023-07-16T03:40:35;17.00;99.90
14188;DHT22;7175;51.978;5.330;2023-07-16T03:43:07;17.10;99.90
14188;DHT22;7175;51.978;5.330;2023-07-16T03:45:37;17.10;99.90
14188;DHT22;7175;51.978;5.330;2023-07-16T03:48:05;17.00;99.90
14188;DHT22;7175;51.978;5.330;2023-07-16T03:50:34;17.00;99.90
14188;DHT22;7175;51.978;5.330;2023-07-16T03:53:03;17.00;99.90
14188;DHT22;7175;51.978;5.330;2023-07-16T03:55:31;17.00;99.90
14188;DHT22;7175;51.978;5.330;2023-07-16T03:58:01;17.00;99.90
14188;DHT22;7175;51.978;5.330;2023-07-16T04:00:29;17.00;99.90
14188;DHT22;7175;51.978;5.330;2023-07-16T04:02:59;17.10;99.90
14188;DHT22;7175;51.978;5.330;2023-07-16T04:05:27;17.10;99.90
14188;DHT22;7175;51.978;5.330;2023-07-16T04:07:55;17.10;99.90
14188;DHT22;7175;51.978;5.330;2023-07-16T04:10:24;17.10;99.90
14188;DHT22;7175;51.978;5.330;2023-07-16T04:12:53;17.10;99.90
14188;DHT22;7175;51.978;5.330;2023-07-16T04:15:21;17.10;99.90
14188;DHT22;7175;51.978;5.330;2023-07-16T04:17:50;17.10;99.90
14188;DHT22;7175;51.978;5.330;2023-07-16T04:20:20;17.10;99.90
14188;DHT22;7175;51.978;5.330;2023-07-16T04:22:48;17.10;99.90
14188;DHT22;7175;51.978;5.330;2023-07-16T04:25:16;17.00;99.90
14188;DHT22;7175;51.978;5.330;2023-07-16T04:27:45;17.00;99.90
14188;DHT22;7175;51.978;5.330;2023-07-16T04:30:13;17.00;99.90
14188;DHT22;7175;51.978;5.330;2023-07-16T04:32:42;17.00;99.90
14188;DHT22;7175;51.978;5.330;2023-07-16T04:35:10;17.00;99.90
14188;DHT22;7175;51.978;5.330;2023-07-16T04:37:40;17.00;99.90
14188;DHT22;7175;51.978;5.330;2023-07-16T04:40:09;17.00;99.90
14188;DHT22;7175;51.978;5.330;2023-07-16T04:42:37;17.00;99.90
14188;DHT22;7175;51.978;5.330;2023-07-16T04:45:06;17.00;99.90
14188;DHT22;7175;51.978;5.330;2023-07-16T04:47:39;17.10;99.90
14188;DHT22;7175;51.978;5.330;2023-07-16T04:50:08;17.10;99.90
14188;DHT22;7175;51.978;5.330;2023-07-16T04:52:37;17.10;99.90
14188;DHT22;7175;51.978;5.330;2023-07-16T04:55:07;17.20;99.90
14188;DHT22;7175;51.978;5.330;2023-07-16T04:57:36;17.20;99.90
14188;DHT22;7175;51.978;5.330;2023-07-16T05:00:06;17.20;99.90
14188;DHT22;7175;51.978;5.330;2023-07-16T05:02:34;17.20;99.90
14188;DHT22;7175;51.978;5.330;2023-07-16T05:05:05;17.20;99.90
14188;DHT22;7175;51.978;5.330;2023-07-16T05:07:34;17.30;99.90
14188;DHT22;7175;51.978;5.330;2023-07-16T05:10:05;17.30;99.90
14188;DHT22;7175;51.978;5.330;2023-07-16T05:12:40;17.40;99.90
14188;DHT22;7175;51.978;5.330;2023-07-16T05:15:09;17.40;99.90
14188;DHT22;7175;51.978;5.330;2023-07-16T05:17:37;17.40;99.90
14188;DHT22;7175;51.978;5.330;2023-07-16T05:20:07;17.40;99.90
14188;DHT22;7175;51.978;5.330;2023-07-16T05:22:37;17.50;99.90
14188;DHT22;7175;51.978;5.330;2023-07-16T05:25:06;17.50;99.90
14188;DHT22;7175;51.978;5.330;2023-07-16T05:27:34;17.60;99.90
14188;DHT22;7175;51.978;5.330;2023-07-16T05:30:06;17.60;99.90
14188;DHT22;7175;51.978;5.330;2023-07-16T05:32:35;17.70;99.90
14188;DHT22;7175;51.978;5.330;2023-07-16T05:35:04;17.70;99.90
14188;DHT22;7175;51.978;5.330;2023-07-16T05:37:33;17.80;99.90
14188;DHT22;7175;51.978;5.330;2023-07-16T05:40:01;17.90;99.90
14188;DHT22;7175;51.978;5.330;2023-07-16T05:42:30;17.90;99.90
14188;DHT22;7175;51.978;5.330;2023-07-16T05:44:59;18.00;99.90
14188;DHT22;7175;51.978;5.330;2023-07-16T05:47:29;18.00;99.90
14188;DHT22;7175;51.978;5.330;2023-07-16T05:49:57;18.20;99.90
14188;DHT22;7175;51.978;5.330;2023-07-16T05:52:25;18.10;99.90
14188;DHT22;7175;51.978;5.330;2023-07-16T05:54:54;18.20;99.90
14188;DHT22;7175;51.978;5.330;2023-07-16T05:57:22;18.50;99.90
14188;DHT22;7175;51.978;5.330;2023-07-16T05:59:50;19.10;99.90
14188;DHT22;7175;51.978;5.330;2023-07-16T06:02:22;19.20;99.90
14188;DHT22;7175;51.978;5.330;2023-07-16T06:04:52;19.20;99.90
14188;DHT22;7175;51.978;5.330;2023-07-16T06:07:24;19.40;99.90
14188;DHT22;7175;51.978;5.330;2023-07-16T06:09:52;19.50;99.90
14188;DHT22;7175;51.978;5.330;2023-07-16T06:12:20;19.90;99.90
14188;DHT22;7175;51.978;5.330;2023-07-16T06:14:49;20.20;99.90
14188;DHT22;7175;51.978;5.330;2023-07-16T06:17:17;20.40;99.90
14188;DHT22;7175;51.978;5.330;2023-07-16T06:19:46;20.30;99.90
14188;DHT22;7175;51.978;5.330;2023-07-16T06:22:16;20.30;99.90
14188;DHT22;7175;51.978;5.330;2023-07-16T06:24:44;20.30;99.90
14188;DHT22;7175;51.978;5.330;2023-07-16T06:27:13;20.40;99.90
14188;DHT22;7175;51.978;5.330;2023-07-16T06:29:41;20.20;99.90
14188;DHT22;7175;51.978;5.330;2023-07-16T06:32:09;20.00;99.90
14188;DHT22;7175;51.978;5.330;2023-07-16T06:34:37;19.80;99.90
14188;DHT22;7175;51.978;5.330;2023-07-16T06:37:06;19.70;99.90
14188;DHT22;7175;51.978;5.330;2023-07-16T06:39:36;19.80;99.90
14188;DHT22;7175;51.978;5.330;2023-07-16T06:42:05;19.80;99.90
14188;DHT22;7175;51.978;5.330;2023-07-16T06:44:34;20.00;99.90
14188;DHT22;7175;51.978;5.330;2023-07-16T06:47:04;20.10;99.90
14188;DHT22;7175;51.978;5.330;2023-07-16T06:49:32;20.00;99.90
14188;DHT22;7175;51.978;5.330;2023-07-16T06:52:02;20.10;99.90
14188;DHT22;7175;51.978;5.330;2023-07-16T06:54:30;20.10;99.90
14188;DHT22;7175;51.978;5.330;2023-07-16T06:56:59;20.40;99.90
14188;DHT22;7175;51.978;5.330;2023-07-16T06:59:28;20.20;99.90
14188;DHT22;7175;51.978;5.330;2023-07-16T07:02:00;20.30;99.90
14188;DHT22;7175;51.978;5.330;2023-07-16T07:04:29;20.20;99.90
14188;DHT22;7175;51.978;5.330;2023-07-16T07:06:58;20.20;99.90
14188;DHT22;7175;51.978;5.330;2023-07-16T07:09:26;20.50;99.90
14188;DHT22;7175;51.978;5.330;2023-07-16T07:11:54;20.80;99.90
14188;DHT22;7175;51.978;5.330;2023-07-16T07:14:24;21.10;99.90
14188;DHT22;7175;51.978;5.330;2023-07-16T07:16:52;20.80;99.90
14188;DHT22;7175;51.978;5.330;2023-07-16T07:19:21;21.10;99.90
14188;DHT22;7175;51.978;5.330;2023-07-16T07:21:50;20.80;99.90
14188;DHT22;7175;51.978;5.330;2023-07-16T07:24:18;21.00;99.90
14188;DHT22;7175;51.978;5.330;2023-07-16T07:26:51;20.70;99.90
14188;DHT22;7175;51.978;5.330;2023-07-16T07:29:19;20.50;99.90
14188;DHT22;7175;51.978;5.330;2023-07-16T07:31:48;20.60;99.90
14188;DHT22;7175;51.978;5.330;2023-07-16T07:34:17;20.60;99.90
14188;DHT22;7175;51.978;5.330;2023-07-16T07:36:45;20.40;99.90
14188;DHT22;7175;51.978;5.330;2023-07-16T07:39:14;20.40;99.90
14188;DHT22;7175;51.978;5.330;2023-07-16T07:41:43;20.40;99.90
14188;DHT22;7175;51.978;5.330;2023-07-16T07:44:12;20.60;99.90
14188;DHT22;7175;51.978;5.330;2023-07-16T07:46:40;20.80;99.90
14188;DHT22;7175;51.978;5.330;2023-07-16T07:49:11;21.00;99.90
14188;DHT22;7175;51.978;5.330;2023-07-16T07:51:40;21.30;99.90
14188;DHT22;7175;51.978;5.330;2023-07-16T07:54:08;21.50;99.90
14188;DHT22;7175;51.978;5.330;2023-07-16T07:56:37;21.40;99.90
14188;DHT22;7175;51.978;5.330;2023-07-16T07:59:06;21.40;99.90
14188;DHT22;7175;51.978;5.330;2023-07-16T08:01:34;21.80;99.90
14188;DHT22;7175;51.978;5.330;2023-07-16T08:04:04;21.70;99.90
14188;DHT22;7175;51.978;5.330;2023-07-16T08:06:34;21.50;99.90
14188;DHT22;7175;51.978;5.330;2023-07-16T08:09:02;21.10;99.90
14188;DHT22;7175;51.978;5.330;2023-07-16T08:11:34;20.90;99.90
14188;DHT22;7175;51.978;5.330;2023-07-16T08:14:03;20.80;99.90
14188;DHT22;7175;51.978;5.330;2023-07-16T08:16:31;20.90;99.90
14188;DHT22;7175;51.978;5.330;2023-07-16T08:19:03;20.60;99.90
14188;DHT22;7175;51.978;5.330;2023-07-16T08:21:33;20.70;99.90
14188;DHT22;7175;51.978;5.330;2023-07-16T08:24:05;20.60;99.90
14188;DHT22;7175;51.978;5.330;2023-07-16T08:26:34;20.40;99.90
14188;DHT22;7175;51.978;5.330;2023-07-16T08:29:03;20.40;99.90
14188;DHT22;7175;51.978;5.330;2023-07-16T08:31:32;20.30;99.90
14188;DHT22;7175;51.978;5.330;2023-07-16T08:34:00;20.20;99.90
14188;DHT22;7175;51.978;5.330;2023-07-16T08:36:32;20.20;99.90
14188;DHT22;7175;51.978;5.330;2023-07-16T08:39:02;20.20;99.90
14188;DHT22;7175;51.978;5.330;2023-07-16T08:41:30;20.20;99.90
14188;DHT22;7175;51.978;5.330;2023-07-16T08:43:58;20.20;99.90
14188;DHT22;7175;51.978;5.330;2023-07-16T08:46:27;20.30;99.90
14188;DHT22;7175;51.978;5.330;2023-07-16T08:48:55;20.20;99.90
14188;DHT22;7175;51.978;5.330;2023-07-16T08:51:25;20.30;99.90
14188;DHT22;7175;51.978;5.330;2023-07-16T08:53:54;20.30;99.90
14188;DHT22;7175;51.978;5.330;2023-07-16T08:56:24;20.30;99.90
14188;DHT22;7175;51.978;5.330;2023-07-16T08:58:54;20.50;99.90
14188;DHT22;7175;51.978;5.330;2023-07-16T09:01:23;20.60;99.90
14188;DHT22;7175;51.978;5.330;2023-07-16T09:03:52;20.60;99.90
14188;DHT22;7175;51.978;5.330;2023-07-16T09:06:20;20.70;99.90
14188;DHT22;7175;51.978;5.330;2023-07-16T09:08:49;20.90;99.90
14188;DHT22;7175;51.978;5.330;2023-07-16T09:11:17;21.10;99.90
14188;DHT22;7175;51.978;5.330;2023-07-16T09:13:50;20.90;99.90
14188;DHT22;7175;51.978;5.330;2023-07-16T09:16:18;20.90;99.90
14188;DHT22;7175;51.978;5.330;2023-07-16T09:18:48;21.00;99.90
14188;DHT22;7175;51.978;5.330;2023-07-16T09:21:16;21.00;99.90
14188;DHT22;7175;51.978;5.330;2023-07-16T09:23:44;21.20;99.90
14188;DHT22;7175;51.978;5.330;2023-07-16T09:26:12;21.70;99.90
14188;DHT22;7175;51.978;5.330;2023-07-16T09:28:42;22.50;99.90
14188;DHT22;7175;51.978;5.330;2023-07-16T09:31:12;22.40;99.90
14188;DHT22;7175;51.978;5.330;2023-07-16T09:33:40;22.10;99.90
14188;DHT22;7175;51.978;5.330;2023-07-16T09:36:08;21.80;99.90
14188;DHT22;7175;51.978;5.330;2023-07-16T09:38:37;21.50;99.90
14188;DHT22;7175;51.978;5.330;2023-07-16T09:41:06;21.40;99.90
14188;DHT22;7175;51.978;5.330;2023-07-16T09:43:35;21.40;99.90
14188;DHT22;7175;51.978;5.330;2023-07-16T09:46:03;21.20;99.90
14188;DHT22;7175;51.978;5.330;2023-07-16T09:48:33;21.20;99.90
14188;DHT22;7175;51.978;5.330;2023-07-16T09:51:02;21.10;99.90
14188;DHT22;7175;51.978;5.330;2023-07-16T09:53:31;21.10;99.90
14188;DHT22;7175;51.978;5.330;2023-07-16T09:56:03;21.00;99.90
14188;DHT22;7175;51.978;5.330;2023-07-16T09:58:35;20.90;99.90
14188;DHT22;7175;51.978;5.330;2023-07-16T10:01:05;20.90;99.90
14188;DHT22;7175;51.978;5.330;2023-07-16T10:03:35;20.80;99.90
14188;DHT22;7175;51.978;5.330;2023-07-16T10:06:06;20.80;99.90
14188;DHT22;7175;51.978;5.330;2023-07-16T10:08:35;21.10;99.90
14188;DHT22;7175;51.978;5.330;2023-07-16T10:11:03;21.50;99.90
14188;DHT22;7175;51.978;5.330;2023-07-16T10:13:33;22.00;99.90
14188;DHT22;7175;51.978;5.330;2023-07-16T10:16:02;21.90;99.90
14188;DHT22;7175;51.978;5.330;2023-07-16T10:18:31;21.90;99.90
14188;DHT22;7175;51.978;5.330;2023-07-16T10:21:07;22.10;99.90
14188;DHT22;7175;51.978;5.330;2023-07-16T10:23:40;22.20;99.90
14188;DHT22;7175;51.978;5.330;2023-07-16T10:26:10;22.00;99.90
14188;DHT22;7175;51.978;5.330;2023-07-16T10:28:44;21.60;99.90
14188;DHT22;7175;51.978;5.330;2023-07-16T10:31:21;21.30;99.90
14188;DHT22;7175;51.978;5.330;2023-07-16T10:33:59;21.00;99.90
14188;DHT22;7175;51.978;5.330;2023-07-16T10:36:30;21.00;99.90
14188;DHT22;7175;51.978;5.330;2023-07-16T10:39:04;21.10;99.90
14188;DHT22;7175;51.978;5.330;2023-07-16T10:41:32;21.40;99.90
14188;DHT22;7175;51.978;5.330;2023-07-16T10:44:00;21.50;99.90
14188;DHT22;7175;51.978;5.330;2023-07-16T10:46:30;21.60;99.90
14188;DHT22;7175;51.978;5.330;2023-07-16T10:48:59;21.70;99.90
14188;DHT22;7175;51.978;5.330;2023-07-16T10:51:29;21.70;99.90
14188;DHT22;7175;51.978;5.330;2023-07-16T10:53:57;21.50;99.90
14188;DHT22;7175;51.978;5.330;2023-07-16T10:56:27;21.20;99.90
14188;DHT22;7175;51.978;5.330;2023-07-16T10:58:55;21.10;99.90
14188;DHT22;7175;51.978;5.330;2023-07-16T11:01:23;20.90;99.90
14188;DHT22;7175;51.978;5.330;2023-07-16T11:03:51;21.50;99.90
14188;DHT22;7175;51.978;5.330;2023-07-16T11:06:19;21.70;99.90
14188;DHT22;7175;51.978;5.330;2023-07-16T11:08:49;22.00;99.90
14188;DHT22;7175;51.978;5.330;2023-07-16T11:11:28;22.30;99.90
14188;DHT22;7175;51.978;5.330;2023-07-16T11:13:56;22.30;99.90
14188;DHT22;7175;51.978;5.330;2023-07-16T11:16:26;22.00;99.90
14188;DHT22;7175;51.978;5.330;2023-07-16T11:18:55;22.20;99.90
14188;DHT22;7175;51.978;5.330;2023-07-16T11:21:25;22.40;99.90
14188;DHT22;7175;51.978;5.330;2023-07-16T11:23:55;22.40;99.90
14188;DHT22;7175;51.978;5.330;2023-07-16T11:26:23;22.10;99.90
14188;DHT22;7175;51.978;5.330;2023-07-16T11:28:51;22.00;99.90
14188;DHT22;7175;51.978;5.330;2023-07-16T11:31:20;22.00;99.90
14188;DHT22;7175;51.978;5.330;2023-07-16T11:33:50;21.80;99.90
14188;DHT22;7175;51.978;5.330;2023-07-16T11:36:19;21.50;99.90
14188;DHT22;7175;51.978;5.330;2023-07-16T11:38:48;21.30;99.90
14188;DHT22;7175;51.978;5.330;2023-07-16T11:41:22;21.30;99.90
14188;DHT22;7175;51.978;5.330;2023-07-16T11:43:50;21.30;99.90
14188;DHT22;7175;51.978;5.330;2023-07-16T11:46:19;21.20;99.90
14188;DHT22;7175;51.978;5.330;2023-07-16T11:48:48;21.50;99.90
14188;DHT22;7175;51.978;5.330;2023-07-16T11:51:18;21.60;99.90
14188;DHT22;7175;51.978;5.330;2023-07-16T11:53:46;21.80;99.90
14188;DHT22;7175;51.978;5.330;2023-07-16T11:56:14;21.90;99.90
14188;DHT22;7175;51.978;5.330;2023-07-16T11:58:45;21.90;99.90
14188;DHT22;7175;51.978;5.330;2023-07-16T12:01:13;21.80;99.90
14188;DHT22;7175;51.978;5.330;2023-07-16T12:03:42;22.20;99.90
14188;DHT22;7175;51.978;5.330;2023-07-16T12:06:13;23.30;99.90
14188;DHT22;7175;51.978;5.330;2023-07-16T12:08:43;23.40;99.90
14188;DHT22;7175;51.978;5.330;2023-07-16T12:11:18;23.60;99.90
14188;DHT22;7175;51.978;5.330;2023-07-16T12:13:49;24.10;99.90
14188;DHT22;7175;51.978;5.330;2023-07-16T12:16:22;23.90;99.90
14188;DHT22;7175;51.978;5.330;2023-07-16T12:18:53;24.20;99.90
14188;DHT22;7175;51.978;5.330;2023-07-16T12:21:22;24.00;99.90
14188;DHT22;7175;51.978;5.330;2023-07-16T12:23:50;24.50;99.90
14188;DHT22;7175;51.978;5.330;2023-07-16T12:26:19;24.60;99.90
14188;DHT22;7175;51.978;5.330;2023-07-16T12:28:49;24.50;99.90
14188;DHT22;7175;51.978;5.330;2023-07-16T12:31:19;24.70;99.90
14188;DHT22;7175;51.978;5.330;2023-07-16T12:33:48;23.90;99.90
14188;DHT22;7175;51.978;5.330;2023-07-16T12:36:20;23.90;99.90
14188;DHT22;7175;51.978;5.330;2023-07-16T12:38:48;23.40;99.90
14188;DHT22;7175;51.978;5.330;2023-07-16T12:41:16;23.90;99.90
14188;DHT22;7175;51.978;5.330;2023-07-16T12:43:45;24.60;99.90
14188;DHT22;7175;51.978;5.330;2023-07-16T12:46:15;24.20;99.90
14188;DHT22;7175;51.978;5.330;2023-07-16T12:48:47;24.40;99.90
14188;DHT22;7175;51.978;5.330;2023-07-16T12:51:18;23.90;99.90
14188;DHT22;7175;51.978;5.330;2023-07-16T12:53:47;23.90;99.90
14188;DHT22;7175;51.978;5.330;2023-07-16T12:56:17;23.70;99.90
14188;DHT22;7175;51.978;5.330;2023-07-16T12:58:47;23.50;99.90
14188;DHT22;7175;51.978;5.330;2023-07-16T13:01:17;24.10;99.90
14188;DHT22;7175;51.978;5.330;2023-07-16T13:03:46;24.60;99.90
14188;DHT22;7175;51.978;5.330;2023-07-16T13:06:14;24.30;99.90
14188;DHT22;7175;51.978;5.330;2023-07-16T13:08:43;24.20;99.90
14188;DHT22;7175;51.978;5.330;2023-07-16T13:11:11;25.00;99.90
14188;DHT22;7175;51.978;5.330;2023-07-16T13:13:39;24.50;99.90
14188;DHT22;7175;51.978;5.330;2023-07-16T13:16:09;24.20;99.90
14188;DHT22;7175;51.978;5.330;2023-07-16T13:18:40;24.60;99.90
14188;DHT22;7175;51.978;5.330;2023-07-16T13:21:09;24.80;99.90
14188;DHT22;7175;51.978;5.330;2023-07-16T13:23:39;24.00;99.90
14188;DHT22;7175;51.978;5.330;2023-07-16T13:26:07;24.20;99.90
14188;DHT22;7175;51.978;5.330;2023-07-16T13:28:36;24.70;99.90
14188;DHT22;7175;51.978;5.330;2023-07-16T13:31:04;24.90;99.90
14188;DHT22;7175;51.978;5.330;2023-07-16T13:33:33;25.20;99.90
14188;DHT22;7175;51.978;5.330;2023-07-16T13:36:05;24.70;99.90
14188;DHT22;7175;51.978;5.330;2023-07-16T13:38:33;24.30;99.90
14188;DHT22;7175;51.978;5.330;2023-07-16T13:41:02;24.20;99.90
14188;DHT22;7175;51.978;5.330;2023-07-16T13:43:30;24.30;99.90
14188;DHT22;7175;51.978;5.330;2023-07-16T13:45:58;24.10;99.90
14188;DHT22;7175;51.978;5.330;2023-07-16T13:48:27;23.80;99.90
14188;DHT22;7175;51.978;5.330;2023-07-16T13:51:15;24.00;99.90
14188;DHT22;7175;51.978;5.330;2023-07-16T13:53:43;24.10;99.90
14188;DHT22;7175;51.978;5.330;2023-07-16T13:56:12;24.40;99.90
14188;DHT22;7175;51.978;5.330;2023-07-16T13:58:40;25.00;99.50
14188;DHT22;7175;51.978;5.330;2023-07-16T14:01:09;25.30;98.60
14188;DHT22;7175;51.978;5.330;2023-07-16T14:03:37;25.60;99.00
14188;DHT22;7175;51.978;5.330;2023-07-16T14:06:06;25.30;97.80
14188;DHT22;7175;51.978;5.330;2023-07-16T14:08:36;25.20;97.60
14188;DHT22;7175;51.978;5.330;2023-07-16T14:11:04;25.10;97.70
14188;DHT22;7175;51.978;5.330;2023-07-16T14:13:32;24.40;97.80
14188;DHT22;7175;51.978;5.330;2023-07-16T14:16:01;24.20;97.80
14188;DHT22;7175;51.978;5.330;2023-07-16T14:18:30;24.00;98.00
14188;DHT22;7175;51.978;5.330;2023-07-16T14:20:58;24.00;98.10
14188;DHT22;7175;51.978;5.330;2023-07-16T14:23:32;23.90;98.90
14188;DHT22;7175;51.978;5.330;2023-07-16T14:26:02;24.60;98.40
14188;DHT22;7175;51.978;5.330;2023-07-16T14:28:31;24.90;98.10
14188;DHT22;7175;51.978;5.330;2023-07-16T14:30:59;25.50;97.80
14188;DHT22;7175;51.978;5.330;2023-07-16T14:33:28;25.70;96.60
14188;DHT22;7175;51.978;5.330;2023-07-16T14:35:56;26.10;97.40
14188;DHT22;7175;51.978;5.330;2023-07-16T14:38:27;26.10;96.20
14188;DHT22;7175;51.978;5.330;2023-07-16T14:40:55;25.90;96.30
14188;DHT22;7175;51.978;5.330;2023-07-16T14:43:25;25.60;95.90
14188;DHT22;7175;51.978;5.330;2023-07-16T14:45:53;25.80;96.00
14188;DHT22;7175;51.978;5.330;2023-07-16T14:48:22;25.70;96.10
14188;DHT22;7175;51.978;5.330;2023-07-16T14:50:51;25.60;95.20
14188;DHT22;7175;51.978;5.330;2023-07-16T14:53:19;25.00;96.30
14188;DHT22;7175;51.978;5.330;2023-07-16T14:55:48;24.90;96.50
14188;DHT22;7175;51.978;5.330;2023-07-16T14:58:18;24.90;95.70
14188;DHT22;7175;51.978;5.330;2023-07-16T15:00:48;24.80;95.70
14188;DHT22;7175;51.978;5.330;2023-07-16T15:03:17;24.70;96.10
14188;DHT22;7175;51.978;5.330;2023-07-16T15:05:45;24.40;96.30
14188;DHT22;7175;51.978;5.330;2023-07-16T15:08:15;24.20;96.30
14188;DHT22;7175;51.978;5.330;2023-07-16T15:10:47;24.30;96.60
14188;DHT22;7175;51.978;5.330;2023-07-16T15:13:16;24.20;96.10
14188;DHT22;7175;51.978;5.330;2023-07-16T15:15:49;24.10;96.10
14188;DHT22;7175;51.978;5.330;2023-07-16T15:18:18;24.00;96.10
14188;DHT22;7175;51.978;5.330;2023-07-16T15:20:47;24.20;96.80
14188;DHT22;7175;51.978;5.330;2023-07-16T15:23:17;24.00;96.20
14188;DHT22;7175;51.978;5.330;2023-07-16T15:25:46;24.00;95.90
14188;DHT22;7175;51.978;5.330;2023-07-16T15:28:14;24.30;96.70
14188;DHT22;7175;51.978;5.330;2023-07-16T15:30:44;24.50;97.10
14188;DHT22;7175;51.978;5.330;2023-07-16T15:33:16;24.30;97.80
14188;DHT22;7175;51.978;5.330;2023-07-16T15:35:44;24.00;98.30
14188;DHT22;7175;51.978;5.330;2023-07-16T15:38:15;23.70;98.60
14188;DHT22;7175;51.978;5.330;2023-07-16T15:40:44;23.60;99.00
14188;DHT22;7175;51.978;5.330;2023-07-16T15:43:12;23.70;99.40
14188;DHT22;7175;51.978;5.330;2023-07-16T15:45:41;23.80;99.20
14188;DHT22;7175;51.978;5.330;2023-07-16T15:48:10;23.70;99.50
14188;DHT22;7175;51.978;5.330;2023-07-16T15:50:41;23.90;99.80
14188;DHT22;7175;51.978;5.330;2023-07-16T15:53:09;23.70;99.60
14188;DHT22;7175;51.978;5.330;2023-07-16T15:55:37;23.80;99.80
14188;DHT22;7175;51.978;5.330;2023-07-16T15:58:06;23.60;99.30